Time,TemperatureF,DewpointF,PressureIn,WindDirection,WindDirectionDegrees,WindSpeedMPH,WindSpeedGustMPH,Humidity,HourlyPrecipIn,Conditions,Clouds,dailyrainin,SoftwareType,DateUTC
2013-03-20 00:37:00,72.4,47.9,30.06,West,270,1.1,1.1,42,0.00,,,0.00,WUHU216HW,2013-03-20 07:37:00,
2013-03-20 00:42:00,72.4,47.9,30.06,West,270,1.1,1.1,42,0.00,,,0.00,WUHU216HW,2013-03-20 07:42:00,
2013-03-20 17:44:00,59.6,53.8,30.07,NW,315,0.4,0.4,81,0.00,,,0.00,WUHU216HW,2013-03-21 00:44:00,
2013-03-20 17:49:00,59.4,53.7,30.07,SSW,203,0.7,2.0,81,0.00,,,0.07,WUHU216HW,2013-03-21 00:49:00,
2013-03-20 17:54:00,59.4,53.7,30.07,NNW,338,2.5,2.5,81,0.00,,,0.07,WUHU216HW,2013-03-21 00:54:00,
2013-03-20 17:59:00,59.4,53.7,30.07,SSE,158,1.8,2.5,81,0.00,,,0.07,WUHU216HW,2013-03-21 00:59:00,
2013-03-20 18:04:00,59.2,53.5,30.07,South,180,1.8,2.5,81,0.00,,,0.07,WUHU216HW,2013-03-21 01:04:00,
2013-03-20 18:09:00,59.4,53.7,30.07,SW,225,0.0,1.8,81,0.00,,,0.07,WUHU216HW,2013-03-21 01:09:00,
2013-03-20 18:14:00,59.4,53.7,30.07,South,180,2.0,2.0,81,0.00,,,0.07,WUHU216HW,2013-03-21 01:14:00,
2013-03-20 18:19:00,59.4,53.7,30.07,South,180,2.0,2.0,81,0.00,,,0.07,WUHU216HW,2013-03-21 01:19:00,
2013-03-20 18:39:00,58.1,52.7,30.08,SW,225,0.9,0.9,82,0.00,,,0.07,WUHU216HW,2013-03-21 01:39:00,
2013-03-20 18:44:00,58.1,52.7,30.08,SE,135,0.7,0.9,82,0.00,,,0.07,WUHU216HW,2013-03-21 01:44:00,
2013-03-20 18:49:00,58.1,52.7,30.08,SE,135,0.7,0.7,82,0.00,,,0.07,WUHU216HW,2013-03-21 01:49:00,
2013-03-20 19:01:00,57.4,52.3,30.08,NW,315,1.8,1.8,83,0.00,,,0.07,WUHU216HW,2013-03-21 02:01:00,
2013-03-20 19:06:00,57.4,52.3,30.08,North,0,2.7,2.7,83,0.00,,,0.07,WUHU216HW,2013-03-21 02:06:00,
2013-03-20 19:11:00,57.4,52.3,30.08,North,0,2.7,2.7,83,0.00,,,0.07,WUHU216HW,2013-03-21 02:11:00,
2013-03-20 19:31:00,56.5,51.7,30.08,WSW,248,0.9,0.9,84,0.00,,,0.07,WUHU216HW,2013-03-21 02:31:00,
2013-03-20 19:36:00,56.5,51.7,30.08,NNW,338,1.1,1.1,84,0.00,,,0.07,WUHU216HW,2013-03-21 02:36:00,
2013-03-20 19:41:00,56.5,51.7,30.08,NNW,338,1.1,1.1,84,0.00,,,0.07,WUHU216HW,2013-03-21 02:41:00,
2013-03-20 20:01:00,56.2,51.3,30.08,SSW,203,0.9,0.9,84,0.00,,,0.07,WUHU216HW,2013-03-21 03:01:00,
2013-03-20 20:06:00,56.2,51.3,30.08,NE,45,1.1,1.1,84,0.00,,,0.07,WUHU216HW,2013-03-21 03:06:00,
2013-03-20 20:11:00,56.2,51.3,30.08,NE,45,1.1,1.1,84,0.00,,,0.07,WUHU216HW,2013-03-21 03:11:00,
2013-03-20 20:31:00,55.4,50.9,30.09,NW,315,0.9,0.9,85,0.00,,,0.07,WUHU216HW,2013-03-21 03:31:00,
2013-03-20 20:36:00,55.4,50.9,30.09,West,270,1.1,1.1,85,0.00,,,0.07,WUHU216HW,2013-03-21 03:36:00,
2013-03-20 20:41:00,55.4,50.9,30.09,West,270,1.1,1.1,85,0.00,,,0.07,WUHU216HW,2013-03-21 03:41:00,
2013-03-20 21:01:00,55.4,50.6,30.10,NW,315,0.0,0.0,84,0.00,,,0.07,WUHU216HW,2013-03-21 04:01:00,
2013-03-20 21:06:00,55.4,50.6,30.10,NW,315,0.2,0.2,84,0.00,,,0.07,WUHU216HW,2013-03-21 04:06:00,
2013-03-20 21:31:00,55.3,50.1,30.10,WNW,293,0.7,0.7,83,0.00,,,0.07,WUHU216HW,2013-03-21 04:31:00,
2013-03-20 21:36:00,55.3,50.1,30.10,NW,315,1.1,1.1,83,0.00,,,0.07,WUHU216HW,2013-03-21 04:36:00,
2013-03-20 21:41:00,55.3,50.1,30.10,NW,315,1.1,1.1,83,0.00,,,0.07,WUHU216HW,2013-03-21 04:41:00,
2013-03-20 22:01:00,54.4,49.0,30.10,SSE,158,1.1,1.1,82,0.00,,,0.07,WUHU216HW,2013-03-21 05:01:00,
2013-03-20 22:06:00,54.4,49.0,30.10,NW,315,1.1,1.1,82,0.00,,,0.07,WUHU216HW,2013-03-21 05:06:00,
2013-03-20 22:11:00,54.4,49.0,30.10,NW,315,1.1,1.1,82,0.00,,,0.07,WUHU216HW,2013-03-21 05:11:00,
2013-03-20 22:31:00,53.6,48.3,30.11,SSW,203,0.4,0.4,82,0.00,,,0.07,WUHU216HW,2013-03-21 05:31:00,
2013-03-20 22:36:00,53.6,48.3,30.11,SSW,203,0.7,0.7,82,0.00,,,0.07,WUHU216HW,2013-03-21 05:36:00,
2013-03-20 23:01:00,53.6,49.0,30.11,NNW,338,1.3,1.3,84,0.00,,,0.00,WUHU216HW,2013-03-21 06:01:00,
2013-03-20 23:06:00,53.6,49.0,30.11,NNW,338,1.1,1.3,84,0.00,,,0.00,WUHU216HW,2013-03-21 06:06:00,
2013-03-20 23:11:00,53.6,49.0,30.11,NNW,338,1.1,1.1,84,0.00,,,0.00,WUHU216HW,2013-03-21 06:11:00,
2013-03-20 23:31:00,53.6,49.0,30.11,SSW,203,0.0,0.0,84,0.00,,,0.00,WUHU216HW,2013-03-21 06:31:00,
2013-03-20 23:37:00,53.6,49.0,30.11,SSW,203,0.0,0.0,84,0.00,,,0.00,WUHU216HW,2013-03-21 06:37:00,